Time;durP1;ratioP1;P1;durP2;ratioP2;P2;SDS_P1;SDS_P2;PMS_P1;PMS_P2;Temp;Humidity;BMP_temperature;BMP_pressure;BME280_temperature;BME280_humidity;BME280_pressure;Samples;Min_cycle;Max_cycle;Signal;HPM_P1;HPM_P2
2021/03/28 00:00:00;;;;;;;;;;;23.60;41.10;;;;;;5116846;27;20323;-41
2021/03/28 00:02:57;;;;;;;;;;;23.60;41.10;;;;;;5116743;27;19924;-42
2021/03/28 00:05:23;;;;;;;;;;;23.60;41.10;;;;;;5111907;27;19923;-45
2021/03/28 00:07:52;;;;;;;;;;;23.60;41.10;;;;;;5132570;27;19930;-43
2021/03/28 00:10:38;;;;;;;;;;;23.60;41.70;;;;;;5133591;27;19923;-42
2021/03/28 00:13:13;;;;;;;;;;;23.60;41.10;;;;;;5131288;27;19924;-41
2021/03/28 00:15:45;;;;;;;;;;;23.60;41.10;;;;;;5114419;27;19929;-42
2021/03/28 00:18:22;;;;;;;;;;;23.60;41.10;;;;;;5129936;27;19924;-41
2021/03/28 00:20:51;;;;;;;;;;;23.60;41.10;;;;;;5116635;27;20378;-42
2021/03/28 00:23:24;;;;;;;;;;;23.60;41.10;;;;;;5116238;27;19928;-41
2021/03/28 00:25:56;;;;;;;;;;;23.60;41.10;;;;;;5114969;27;19924;-44
2021/03/28 00:28:28;;;;;;;;;;;23.60;41.70;;;;;;5133314;27;19987;-44
2021/03/28 00:31:21;;;;;;;;;;;23.60;41.10;;;;;;5128251;27;19930;-41
2021/03/28 00:34:06;;;;;;;;;;;23.60;41.10;;;;;;5113619;27;20353;-46
2021/03/28 00:36:35;;;;;;;;;;;23.60;41.10;;;;;;5115456;28;19958;-42
2021/03/28 00:39:05;;;;;;;;;;;23.60;41.10;;;;;;5115513;28;20398;-41
2021/03/28 00:41:41;;;;;;;;;;;23.60;41.10;;;;;;5132430;27;19976;-42
2021/03/28 00:44:10;;;;;;;;;;;23.60;41.10;;;;;;5131527;27;19928;-43
2021/03/28 00:47:03;;;;;;;;;;;23.60;41.10;;;;;;5130689;27;19976;-42
2021/03/28 00:49:37;;;;;;;;;;;23.60;41.10;;;;;;5126510;28;19931;-41
2021/03/28 00:52:07;;;;;;;;;;;23.60;41.10;;;;;;5129180;27;19927;-42
2021/03/28 00:54:37;;;;;;;;;;;23.50;41.00;;;;;;5130608;28;19930;-42
2021/03/28 00:57:04;;;;;;;;;;;23.60;41.10;;;;;;5130624;28;20402;-41
2021/03/28 00:59:48;;;;;;;;;;;23.60;41.10;;;;;;5130557;28;19949;-44
2021/03/28 01:02:31;;;;;;;;;;;23.60;41.10;;;;;;5131843;28;19927;-42
2021/03/28 01:05:00;;;;;;;;;;;23.60;41.10;;;;;;5129450;28;19946;-43
2021/03/28 01:07:33;;;;;;;;;;;23.50;41.00;;;;;;5123635;28;20430;-41
2021/03/28 01:10:20;;;;;;;;;;;23.60;41.10;;;;;;5131762;28;19930;-42
2021/03/28 01:13:05;;;;;;;;;;;23.60;41.70;;;;;;5132113;28;19927;-41
2021/03/28 01:15:50;;;;;;;;;;;23.60;41.10;;;;;;5130659;28;19923;-41
2021/03/28 01:18:20;;;;;;;;;;;23.50;41.10;;;;;;5111351;28;19930;-43
2021/03/28 01:20:59;;;;;;;;;;;23.50;41.10;;;;;;5130634;28;19927;-42
2021/03/28 01:23:37;;;;;;;;;;;23.50;41.10;;;;;;5112401;28;19924;-41
2021/03/28 01:26:22;;;;;;;;;;;23.50;41.10;;;;;;5130549;28;19968;-42
2021/03/28 01:28:56;;;;;;;;;;;23.60;41.10;;;;;;5131931;28;19930;-44
2021/03/28 01:31:23;;;;;;;;;;;23.50;41.10;;;;;;5117684;28;20363;-41
2021/03/28 01:34:07;;;;;;;;;;;23.50;41.00;;;;;;5130776;28;19928;-41
2021/03/28 01:37:00;;;;;;;;;;;23.60;41.80;;;;;;5131878;28;20283;-42
2021/03/28 01:39:34;;;;;;;;;;;23.50;41.10;;;;;;5130188;28;19923;-45
2021/03/28 01:42:08;;;;;;;;;;;23.50;41.10;;;;;;5113002;28;19931;-43
2021/03/28 01:44:49;;;;;;;;;;;23.50;41.10;;;;;;5111989;28;19924;-43
2021/03/28 01:47:19;;;;;;;;;;;23.50;41.10;;;;;;5129764;28;20394;-45
2021/03/28 01:50:05;;;;;;;;;;;23.50;41.70;;;;;;5131578;28;19930;-43
2021/03/28 01:52:50;;;;;;;;;;;23.50;41.10;;;;;;5111840;28;19924;-41
2021/03/28 01:55:35;;;;;;;;;;;23.50;41.10;;;;;;5130268;28;20320;-42
2021/03/28 01:58:31;;;;;;;;;;;23.50;41.10;;;;;;5130271;28;19924;-42
2021/03/28 02:01:01;;;;;;;;;;;23.50;41.10;;;;;;5027843;28;20005;-44
2021/03/28 02:03:38;;;;;;;;;;;23.50;41.10;;;;;;5029242;28;20320;-42
2021/03/28 02:06:22;;;;;;;;;;;23.50;41.10;;;;;;5030927;28;20424;-43
2021/03/28 02:08:49;;;;;;;;;;;23.50;41.10;;;;;;5031358;28;19925;-43
2021/03/28 02:11:31;;;;;;;;;;;23.50;41.10;;;;;;5032593;28;19925;-41
2021/03/28 02:14:10;;;;;;;;;;;23.50;41.10;;;;;;5015330;28;19968;-44
2021/03/28 02:16:47;;;;;;;;;;;23.50;41.10;;;;;;5016622;28;19979;-46
2021/03/28 02:19:40;;;;;;;;;;;23.50;41.10;;;;;;5031350;28;19929;-43
2021/03/28 02:22:12;;;;;;;;;;;23.50;41.10;;;;;;4975778;28;19926;-41
2021/03/28 02:25:05;;;;;;;;;;;23.50;41.10;;;;;;4974713;28;19927;-43
2021/03/28 02:27:41;;;;;;;;;;;23.50;41.10;;;;;;4978438;28;20020;-43
2021/03/28 02:30:22;;;;;;;;;;;23.50;41.10;;;;;;4979151;28;20016;-43
2021/03/28 02:32:48;;;;;;;;;;;23.50;41.10;;;;;;4992003;28;19953;-43
2021/03/28 02:35:27;;;;;;;;;;;23.50;41.10;;;;;;4993072;28;19930;-43
2021/03/28 02:38:05;;;;;;;;;;;23.50;41.10;;;;;;5035019;28;19931;-42
2021/03/28 02:40:50;;;;;;;;;;;23.50;41.70;;;;;;5051762;28;19924;-41
2021/03/28 02:43:32;;;;;;;;;;;23.50;41.10;;;;;;5034296;28;19987;-42
2021/03/28 02:46:08;;;;;;;;;;;23.50;41.10;;;;;;5052037;28;19924;-42
2021/03/28 02:49:01;;;;;;;;;;;23.50;41.10;;;;;;5034940;28;19987;-45
2021/03/28 02:51:45;;;;;;;;;;;23.50;41.10;;;;;;5032245;28;19928;-44
2021/03/28 02:54:21;;;;;;;;;;;23.50;41.10;;;;;;5052180;28;19959;-42
2021/03/28 02:56:47;;;;;;;;;;;23.40;41.10;;;;;;5051490;28;19929;-41
2021/03/28 02:59:13;;;;;;;;;;;23.40;41.00;;;;;;5091443;28;19923;-43
2021/03/28 03:01:46;;;;;;;;;;;23.40;41.00;;;;;;5100134;28;19930;-41
2021/03/28 03:04:35;;;;;;;;;;;23.50;41.10;;;;;;5131306;27;20447;-46
2021/03/28 03:07:11;;;;;;;;;;;23.40;41.10;;;;;;5119285;27;19923;-41
2021/03/28 03:09:43;;;;;;;;;;;23.40;41.10;;;;;;5119305;27;19935;-47
2021/03/28 03:12:21;;;;;;;;;;;23.50;41.10;;;;;;5128543;27;20405;-41
2021/03/28 03:14:47;;;;;;;;;;;23.40;41.70;;;;;;5132285;27;19931;-42
2021/03/28 03:17:32;;;;;;;;;;;23.40;41.00;;;;;;5132207;27;19924;-42
2021/03/28 03:20:17;;;;;;;;;;;23.50;41.10;;;;;;5132457;27;19923;-42
2021/03/28 03:23:10;;;;;;;;;;;23.50;41.10;;;;;;5132116;27;19968;-42
2021/03/28 03:25:59;;;;;;;;;;;23.50;41.10;;;;;;5133526;27;19976;-43
2021/03/28 03:28:32;;;;;;;;;;;23.40;41.10;;;;;;5132290;27;19931;-44
2021/03/28 03:31:27;;;;;;;;;;;23.40;41.00;;;;;;5131841;27;19923;-41
2021/03/28 03:34:29;;;;;;;;;;;23.40;41.10;;;;;;5028808;28;19925;-41
2021/03/28 03:36:58;;;;;;;;;;;23.40;41.10;;;;;;4990044;28;19925;-43
2021/03/28 03:39:30;;;;;;;;;;;23.40;41.10;;;;;;4990393;28;19926;-45
2021/03/28 03:42:15;;;;;;;;;;;23.40;41.10;;;;;;4989277;28;19930;-41
2021/03/28 03:44:54;;;;;;;;;;;23.40;41.10;;;;;;4989254;28;19961;-41
2021/03/28 03:47:24;;;;;;;;;;;23.40;41.10;;;;;;4989389;28;19926;-41
2021/03/28 03:50:29;;;;;;;;;;;23.40;41.10;;;;;;4989461;28;20333;-44
2021/03/28 03:53:11;;;;;;;;;;;23.40;41.10;;;;;;4968709;28;20382;-41
2021/03/28 03:55:50;;;;;;;;;;;23.40;41.10;;;;;;4969747;28;19930;-41
2021/03/28 03:58:22;;;;;;;;;;;23.40;41.10;;;;;;4969521;28;19933;-41
2021/03/28 04:00:49;;;;;;;;;;;23.40;41.00;;;;;;4968370;28;20020;-41
2021/03/28 04:03:18;;;;;;;;;;;23.40;41.00;;;;;;4968384;28;19949;-41
2021/03/28 04:05:54;;;;;;;;;;;23.40;41.10;;;;;;4966130;28;19927;-41
2021/03/28 04:08:49;;;;;;;;;;;23.40;41.10;;;;;;4962174;28;19926;-41
2021/03/28 04:11:21;;;;;;;;;;;23.40;41.10;;;;;;4936037;29;19981;-43
2021/03/28 04:14:03;;;;;;;;;;;23.40;41.10;;;;;;4950206;29;19935;-41
2021/03/28 04:16:44;;;;;;;;;;;23.40;41.10;;;;;;4950140;29;20379;-43
2021/03/28 04:19:36;;;;;;;;;;;23.30;41.00;;;;;;4951330;29;19931;-41
2021/03/28 04:22:12;;;;;;;;;;;23.40;41.10;;;;;;4949962;29;19926;-41
2021/03/28 04:24:53;;;;;;;;;;;23.30;41.00;;;;;;5018816;28;20365;-41
2021/03/28 04:27:38;;;;;;;;;;;23.40;41.10;;;;;;5027374;28;19924;-42
2021/03/28 04:30:06;;;;;;;;;;;23.30;41.00;;;;;;5025070;28;19925;-41
2021/03/28 04:32:48;;;;;;;;;;;23.40;41.00;;;;;;5030426;28;20459;-43
2021/03/28 04:35:17;;;;;;;;;;;23.30;40.90;;;;;;5027635;28;19929;-41
2021/03/28 04:37:59;;;;;;;;;;;23.30;41.00;;;;;;5027540;28;19926;-41
2021/03/28 04:40:36;;;;;;;;;;;23.40;41.10;;;;;;5027823;28;19929;-42
2021/03/28 04:43:03;;;;;;;;;;;23.30;41.00;;;;;;5027702;28;19926;-41
2021/03/28 04:45:48;;;;;;;;;;;23.30;41.00;;;;;;5028099;28;19925;-41
2021/03/28 04:48:33;;;;;;;;;;;23.40;41.10;;;;;;5075624;28;19928;-41
2021/03/28 04:51:18;;;;;;;;;;;23.40;41.10;;;;;;5109308;28;19924;-41
2021/03/28 04:53:47;;;;;;;;;;;23.30;41.00;;;;;;5110490;28;20345;-41
2021/03/28 04:56:19;;;;;;;;;;;23.40;41.10;;;;;;5110356;28;19931;-41
2021/03/28 04:58:58;;;;;;;;;;;23.40;41.10;;;;;;5111719;28;19924;-45
2021/03/28 05:01:27;;;;;;;;;;;23.30;41.00;;;;;;5110081;28;19924;-41
2021/03/28 05:03:54;;;;;;;;;;;23.30;41.00;;;;;;5095286;28;19924;-42
2021/03/28 05:06:38;;;;;;;;;;;23.30;41.00;;;;;;5111177;28;19923;-42
2021/03/28 05:09:05;;;;;;;;;;;23.40;41.10;;;;;;5111399;28;19928;-41
2021/03/28 05:11:46;;;;;;;;;;;23.40;41.10;;;;;;5110893;28;20379;-41
2021/03/28 05:14:32;;;;;;;;;;;23.40;41.10;;;;;;5111745;28;19923;-41
2021/03/28 05:17:16;;;;;;;;;;;23.30;41.00;;;;;;5110829;28;20431;-41
2021/03/28 05:19:52;;;;;;;;;;;23.30;41.00;;;;;;5111160;28;19924;-41
2021/03/28 05:22:29;;;;;;;;;;;23.40;41.10;;;;;;5111214;28;19923;-41
2021/03/28 05:25:14;;;;;;;;;;;23.40;41.10;;;;;;5110936;28;20388;-44
2021/03/28 05:27:59;;;;;;;;;;;23.30;41.00;;;;;;5110748;28;19969;-41
2021/03/28 05:30:44;;;;;;;;;;;23.30;41.00;;;;;;5097206;28;19931;-41
2021/03/28 05:33:29;;;;;;;;;;;23.40;41.00;;;;;;5110104;28;19927;-41
2021/03/28 05:35:56;;;;;;;;;;;23.30;41.00;;;;;;5111394;28;20288;-45
2021/03/28 05:38:41;;;;;;;;;;;23.30;41.00;;;;;;5112289;28;20363;-42
2021/03/28 05:41:19;;;;;;;;;;;23.30;40.90;;;;;;5134405;27;19976;-41
2021/03/28 05:43:58;;;;;;;;;;;23.30;41.00;;;;;;5116417;27;19924;-41
2021/03/28 05:46:38;;;;;;;;;;;23.40;41.00;;;;;;5133173;27;20408;-44
2021/03/28 05:49:11;;;;;;;;;;;23.30;40.90;;;;;;5134634;27;19923;-42
2021/03/28 05:51:56;;;;;;;;;;;23.30;41.00;;;;;;5134376;27;19977;-41
2021/03/28 05:54:29;;;;;;;;;;;23.30;40.90;;;;;;5134232;27;19983;-43
2021/03/28 05:57:14;;;;;;;;;;;23.30;40.90;;;;;;5132668;27;19923;-41
2021/03/28 05:59:53;;;;;;;;;;;23.30;40.90;;;;;;5132782;27;19923;-41
2021/03/28 06:02:46;;;;;;;;;;;23.30;40.90;;;;;;5135410;27;20279;-43
2021/03/28 06:05:22;;;;;;;;;;;23.40;41.00;;;;;;5132849;27;19946;-44
2021/03/28 06:07:51;;;;;;;;;;;23.40;41.00;;;;;;5132882;27;19927;-41
2021/03/28 06:10:20;;;;;;;;;;;23.30;41.00;;;;;;5135352;27;19950;-41
2021/03/28 06:12:58;;;;;;;;;;;23.30;40.90;;;;;;5132647;27;20362;-41
2021/03/28 06:15:24;;;;;;;;;;;23.30;40.90;;;;;;5133741;27;20343;-41
2021/03/28 06:18:09;;;;;;;;;;;23.30;40.90;;;;;;5133794;27;19924;-41
2021/03/28 06:20:41;;;;;;;;;;;23.40;41.00;;;;;;5133365;27;19924;-41
2021/03/28 06:23:27;;;;;;;;;;;23.30;40.90;;;;;;5134543;27;19931;-41
2021/03/28 06:25:57;;;;;;;;;;;23.30;41.50;;;;;;5129297;27;19928;-41
2021/03/28 06:28:33;;;;;;;;;;;23.30;40.90;;;;;;5117412;27;19963;-41
2021/03/28 06:31:17;;;;;;;;;;;23.40;41.00;;;;;;5118233;27;19923;-42
2021/03/28 06:33:53;;;;;;;;;;;23.40;41.00;;;;;;5133723;27;19924;-41
2021/03/28 06:36:29;;;;;;;;;;;23.40;41.00;;;;;;5132912;27;19968;-41
2021/03/28 06:39:14;;;;;;;;;;;23.30;40.90;;;;;;5134566;27;19974;-42
2021/03/28 06:41:53;;;;;;;;;;;23.40;40.90;;;;;;5132917;27;19988;-41
2021/03/28 06:44:32;;;;;;;;;;;23.30;40.90;;;;;;5133040;27;20439;-41
2021/03/28 06:47:10;;;;;;;;;;;23.40;40.90;;;;;;5119637;27;19972;-41
2021/03/28 06:49:49;;;;;;;;;;;23.30;40.90;;;;;;5117636;27;19923;-41
2021/03/28 06:52:27;;;;;;;;;;;23.30;40.80;;;;;;5120745;27;20264;-41
2021/03/28 06:55:14;;;;;;;;;;;23.40;40.90;;;;;;5133905;27;19923;-41
2021/03/28 06:57:50;;;;;;;;;;;23.40;40.90;;;;;;5118095;27;19923;-41
2021/03/28 07:00:22;;;;;;;;;;;23.40;40.90;;;;;;5119669;27;19923;-41
2021/03/28 07:02:52;;;;;;;;;;;23.40;40.90;;;;;;5117289;27;20341;-41
2021/03/28 07:05:21;;;;;;;;;;;23.40;40.90;;;;;;5115592;27;19928;-41
2021/03/28 07:08:00;;;;;;;;;;;23.40;40.80;;;;;;5132967;27;19935;-41
2021/03/28 07:10:39;;;;;;;;;;;23.40;40.80;;;;;;5133895;27;19929;-41
2021/03/28 07:13:24;;;;;;;;;;;23.40;40.80;;;;;;5133491;27;20206;-41
2021/03/28 07:15:57;;;;;;;;;;;23.40;40.80;;;;;;5117079;27;19927;-41
2021/03/28 07:18:36;;;;;;;;;;;23.40;40.80;;;;;;5134650;27;19964;-41
2021/03/28 07:21:21;;;;;;;;;;;23.40;40.80;;;;;;5134056;27;19924;-41
2021/03/28 07:23:59;;;;;;;;;;;23.40;40.80;;;;;;5116679;27;20031;-42
2021/03/28 07:26:49;;;;;;;;;;;23.40;40.80;;;;;;5134973;27;19976;-41
2021/03/28 07:29:34;;;;;;;;;;;23.40;40.80;;;;;;5131765;27;19931;-41
2021/03/28 07:32:17;;;;;;;;;;;23.40;40.80;;;;;;5133173;27;19929;-41
2021/03/28 07:35:02;;;;;;;;;;;23.40;40.80;;;;;;5133383;27;19923;-41
2021/03/28 07:37:32;;;;;;;;;;;23.50;40.90;;;;;;5133421;27;19924;-43
2021/03/28 07:40:16;;;;;;;;;;;23.40;40.80;;;;;;5133364;27;19927;-41
2021/03/28 07:42:49;;;;;;;;;;;23.50;40.90;;;;;;5133143;27;19923;-41
2021/03/28 07:45:25;;;;;;;;;;;23.50;40.90;;;;;;5131751;27;20306;-40
2021/03/28 07:47:51;;;;;;;;;;;23.40;40.70;;;;;;5131633;27;19924;-41
2021/03/28 07:50:36;;;;;;;;;;;23.40;40.80;;;;;;5133058;27;19935;-42
2021/03/28 07:53:15;;;;;;;;;;;23.40;40.80;;;;;;5133216;27;19923;-41
2021/03/28 07:55:55;;;;;;;;;;;23.40;40.70;;;;;;5113554;27;19923;-41
2021/03/28 07:58:22;;;;;;;;;;;23.40;40.80;;;;;;5130606;27;19930;-41
2021/03/28 08:00:48;;;;;;;;;;;23.40;40.70;;;;;;5132246;27;20302;-43
2021/03/28 08:03:33;;;;;;;;;;;23.40;40.70;;;;;;5132618;27;20444;-41
2021/03/28 08:06:16;;;;;;;;;;;23.50;40.80;;;;;;5132813;27;19939;-43
2021/03/28 08:08:45;;;;;;;;;;;23.50;40.80;;;;;;5131826;27;19946;-42
2021/03/28 08:11:21;;;;;;;;;;;23.40;40.70;;;;;;5131467;27;20337;-43
2021/03/28 08:14:11;;;;;;;;;;;23.50;40.80;;;;;;5131029;27;19934;-41
2021/03/28 08:17:00;;;;;;;;;;;23.50;40.80;;;;;;5106645;28;19930;-41
2021/03/28 08:19:29;;;;;;;;;;;23.50;40.80;;;;;;5121917;27;19937;-41
2021/03/28 08:22:14;;;;;;;;;;;23.50;40.80;;;;;;5130984;27;19930;-41
2021/03/28 08:25:21;;;;;;;;;;;23.50;40.70;;;;;;5130790;27;19924;-41
2021/03/28 08:27:54;;;;;;;;;;;23.50;40.70;;;;;;5130965;27;20072;-41
2021/03/28 08:30:40;;;;;;;;;;;23.50;40.70;;;;;;5130848;27;19927;-41
2021/03/28 08:33:20;;;;;;;;;;;23.50;40.70;;;;;;5131149;27;19930;-41
2021/03/28 08:35:53;;;;;;;;;;;23.50;40.70;;;;;;5132238;27;19924;-41
2021/03/28 08:38:28;;;;;;;;;;;23.50;40.70;;;;;;5132168;27;19984;-41
2021/03/28 08:41:21;;;;;;;;;;;23.50;40.70;;;;;;5111188;27;19923;-41
2021/03/28 08:44:06;;;;;;;;;;;23.50;40.70;;;;;;5029831;28;19929;-41
2021/03/28 08:46:36;;;;;;;;;;;23.50;40.70;;;;;;5028596;28;19929;-42
2021/03/28 08:49:21;;;;;;;;;;;23.50;40.70;;;;;;5012568;28;19932;-41
2021/03/28 08:51:59;;;;;;;;;;;23.50;40.60;;;;;;5028961;28;20308;-49
2021/03/28 08:54:31;;;;;;;;;;;23.50;40.60;;;;;;5027585;28;19972;-45
2021/03/28 08:57:01;;;;;;;;;;;23.50;40.70;;;;;;5027530;28;20344;-44
2021/03/28 08:59:36;;;;;;;;;;;23.60;40.70;;;;;;5028651;28;19925;-41
2021/03/28 09:02:05;;;;;;;;;;;23.50;40.60;;;;;;5028710;28;20337;-41
2021/03/28 09:04:46;;;;;;;;;;;23.50;40.60;;;;;;5028603;28;19925;-41
2021/03/28 09:07:13;;;;;;;;;;;23.50;40.60;;;;;;5017114;28;19988;-41
2021/03/28 09:09:40;;;;;;;;;;;23.50;40.60;;;;;;5029849;28;19925;-41
2021/03/28 09:12:17;;;;;;;;;;;23.50;40.50;;;;;;5029604;28;19931;-43
2021/03/28 09:14:44;;;;;;;;;;;23.60;40.70;;;;;;5032035;28;20008;-41
2021/03/28 09:17:16;;;;;;;;;;;23.60;40.60;;;;;;5033445;28;19935;-41
2021/03/28 09:19:49;;;;;;;;;;;23.50;40.50;;;;;;5045394;27;19936;-41
2021/03/28 09:22:21;;;;;;;;;;;23.60;40.60;;;;;;5121943;27;19928;-41
2021/03/28 09:25:04;;;;;;;;;;;23.50;40.50;;;;;;5119776;27;19975;-46
2021/03/28 09:27:30;;;;;;;;;;;23.60;40.60;;;;;;5130146;27;19923;-44
2021/03/28 09:30:15;;;;;;;;;;;23.50;40.50;;;;;;5126491;27;20027;-41
2021/03/28 09:32:47;;;;;;;;;;;23.60;40.60;;;;;;5129433;27;20371;-44
2021/03/28 09:35:22;;;;;;;;;;;23.60;40.50;;;;;;5127349;27;19924;-41
2021/03/28 09:37:53;;;;;;;;;;;23.60;40.50;;;;;;5126815;27;19931;-43
2021/03/28 09:40:23;;;;;;;;;;;23.60;40.50;;;;;;5132973;27;19927;-43
2021/03/28 09:43:10;;;;;;;;;;;23.60;40.50;;;;;;5131448;27;19953;-44
2021/03/28 09:45:51;;;;;;;;;;;23.60;40.50;;;;;;5123069;27;20609;-43
2021/03/28 09:48:21;;;;;;;;;;;23.60;40.50;;;;;;5131255;27;20282;-41
2021/03/28 09:50:57;;;;;;;;;;;23.60;40.50;;;;;;5133779;27;19931;-41
2021/03/28 09:53:38;;;;;;;;;;;23.60;40.50;;;;;;5118869;27;19932;-46
2021/03/28 09:56:23;;;;;;;;;;;23.60;40.50;;;;;;5133018;27;19931;-41
2021/03/28 09:59:09;;;;;;;;;;;23.60;41.10;;;;;;5121781;27;20306;-44
2021/03/28 10:01:54;;;;;;;;;;;23.60;40.50;;;;;;5135171;27;19928;-42
2021/03/28 10:04:39;;;;;;;;;;;23.60;40.50;;;;;;5131447;27;19924;-41
2021/03/28 10:07:06;;;;;;;;;;;23.60;40.40;;;;;;5133289;27;20345;-41
2021/03/28 10:09:39;;;;;;;;;;;23.70;40.50;;;;;;5131716;27;20302;-43
2021/03/28 10:14:45;;;;;;;3.53;1.00;;;23.70;40.00;;;;;;5144268;27;20456;-37
2021/03/28 10:17:37;;;;;;;1.92;0.70;;;23.70;42.10;;;;;;5150628;27;20059;-38
2021/03/28 10:20:34;;;;;;;3.30;0.68;;;23.70;41.00;;;;;;5134963;27;20058;-37
2021/03/28 10:23:23;;;;;;;2.35;0.60;;;23.70;40.90;;;;;;5106134;27;20466;-38
2021/03/28 10:26:18;;;;;;;1.15;0.60;;;23.70;40.70;;;;;;5134559;27;20040;-38
2021/03/28 10:29:06;;;;;;;0.95;0.63;;;23.60;40.50;;;;;;5131142;27;20095;-37
2021/03/28 10:31:47;;;;;;;1.88;0.70;;;23.60;40.50;;;;;;5138185;27;20039;-38
2021/03/28 10:34:23;;;;;;;1.60;0.70;;;23.60;40.50;;;;;;5148685;27;20559;-38
2021/03/28 10:37:14;;;;;;;2.08;0.70;;;23.60;40.40;;;;;;5149926;27;20095;-38
2021/03/28 10:40:10;;;;;;;3.38;0.80;;;23.50;40.00;;;;;;5144927;27;20044;-38
2021/03/28 10:42:59;;;;;;;2.45;1.30;;;23.60;39.70;;;;;;5141791;27;20503;-38
2021/03/28 10:46:02;;;;;;;5.38;1.38;;;23.50;39.20;;;;;;5142062;27;20047;-38
2021/03/28 10:48:52;;;;;;;4.27;1.93;;;23.50;39.00;;;;;;5131441;27;20126;-38
2021/03/28 10:52:05;;;;;;;6.32;3.22;;;23.50;38.40;;;;;;5099095;27;20078;-38
2021/03/28 10:55:23;;;;;;;8.50;3.45;;;23.50;38.20;;;;;;5135581;27;20043;-39
2021/03/28 10:58:12;;;;;;;8.23;3.45;;;23.50;37.90;;;;;;5146918;27;20461;-39
2021/03/28 11:01:16;;;;;;;10.13;3.65;;;23.50;37.90;;;;;;5133519;27;20039;-38
2021/03/28 11:03:51;;;;;;;9.50;3.75;;;23.50;37.80;;;;;;5135375;27;20061;-38
2021/03/28 11:06:41;;;;;;;11.32;4.63;;;23.50;37.70;;;;;;5144618;27;20134;-38
2021/03/28 11:09:11;;;;;;;11.63;5.28;;;23.50;37.20;;;;;;5134762;27;20043;-38
2021/03/28 11:11:47;;;;;;;13.60;6.05;;;23.40;36.80;;;;;;5133336;27;20043;-38
2021/03/28 11:14:19;;;;;;;16.25;7.43;;;23.40;36.70;;;;;;5133514;27;20099;-38
2021/03/28 11:17:04;;;;;;;18.40;8.70;;;23.50;36.70;;;;;;5150730;27;20039;-38
2021/03/28 11:19:49;;;;;;;19.77;8.25;;;23.40;36.40;;;;;;5133194;27;20054;-37
2021/03/28 11:22:42;;;;;;;22.88;8.65;;;23.50;36.30;;;;;;5133158;27;20062;-37
2021/03/28 11:25:23;;;;;;;25.77;9.30;;;23.50;36.80;;;;;;5125014;27;20473;-37
2021/03/28 11:27:50;;;;;;;21.13;9.77;;;23.40;36.70;;;;;;5132994;27;20047;-37
2021/03/28 11:30:40;;;;;;;25.33;9.45;;;23.40;35.90;;;;;;5127108;27;20078;-38
2021/03/28 11:33:36;;;;;;;22.38;9.15;;;23.40;35.70;;;;;;5119084;27;20051;-37
2021/03/28 11:36:09;;;;;;;19.85;8.35;;;23.40;35.50;;;;;;5133615;27;20075;-37
2021/03/28 11:39:14;;;;;;;22.42;8.88;;;23.40;35.40;;;;;;5135102;27;20118;-37
2021/03/28 11:41:55;;;;;;;;;;;23.40;35.00;;;;;;5130248;27;20043;-37
2021/03/28 11:44:33;;;;;;;17.45;6.90;;;23.40;34.90;;;;;;5115608;27;20382;-37
2021/03/28 11:47:20;;;;;;;15.85;6.10;;;23.40;34.40;;;;;;5130809;27;20506;-38
2021/03/28 11:50:04;;;;;;;14.32;6.32;;;23.30;34.20;;;;;;5116493;27;20049;-38
2021/03/28 11:52:53;;;;;;;19.00;6.25;;;23.40;34.20;;;;;;5135167;27;20398;-38
2021/03/28 11:55:25;;;;;;;17.10;6.80;;;23.40;34.10;;;;;;5133904;27;20047;-37
2021/03/28 11:58:12;;;;;;;20.33;7.47;;;23.30;34.00;;;;;;5133048;27;20050;-37
2021/03/28 12:00:59;;;;;;;15.98;6.70;;;23.30;33.70;;;;;;5118717;27;20126;-38
2021/03/28 12:03:31;;;;;;;22.38;7.43;;;23.40;33.90;;;;;;5108168;27;20462;-38
2021/03/28 12:05:58;;;;;;;21.17;7.43;;;23.30;33.70;;;;;;5132577;27;20440;-38
2021/03/28 12:08:34;;;;;;;19.38;7.38;;;23.40;33.80;;;;;;5134505;27;20047;-38
2021/03/28 12:11:30;;;;;;;19.23;6.80;;;23.30;33.60;;;;;;5131924;27;20082;-39
2021/03/28 12:14:16;;;;;;;20.45;7.32;;;23.30;33.50;;;;;;5106017;27;20043;-37
2021/03/28 12:17:08;;;;;;;17.77;7.03;;;23.30;33.40;;;;;;5121914;27;20047;-38
2021/03/28 12:19:59;;;;;;;15.32;6.38;;;23.30;33.40;;;;;;5122948;27;20039;-38
2021/03/28 12:22:32;;;;;;;18.83;6.40;;;23.30;33.50;;;;;;5111330;27;20494;-38
2021/03/28 12:25:25;;;;;;;19.10;6.20;;;23.30;33.40;;;;;;5129302;27;20127;-37
2021/03/28 12:27:58;;;;;;;18.40;5.80;;;23.40;33.40;;;;;;5118931;27;20123;-38
2021/03/28 12:30:42;;;;;;;17.67;6.95;;;23.40;33.50;;;;;;5118113;27;20043;-38
2021/03/28 12:33:17;;;;;;;16.17;6.03;;;23.40;33.50;;;;;;5118174;27;20043;-37
2021/03/28 12:35:47;;;;;;;14.15;5.65;;;23.40;33.60;;;;;;5121725;27;20039;-37
2021/03/28 12:38:26;;;;;;;13.63;5.72;;;23.40;33.80;;;;;;5132247;27;20486;-39
2021/03/28 12:41:11;;;;;;;16.95;5.55;;;23.40;34.00;;;;;;5116980;27;20122;-38
2021/03/28 12:43:44;;;;;;;15.57;5.22;;;23.40;34.10;;;;;;5119765;27;20396;-38
2021/03/28 12:46:26;;;;;;;15.63;5.45;;;23.40;34.20;;;;;;5118493;27;20055;-38
2021/03/28 12:49:09;;;;;;;24.40;5.80;;;23.40;34.50;;;;;;5116378;27;20091;-38
2021/03/28 12:51:39;;;;;;;26.23;5.72;;;23.40;34.90;;;;;;5099322;27;20043;-38
2021/03/28 12:54:28;;;;;;;27.15;5.65;;;23.40;35.30;;;;;;5118907;27;20489;-38
2021/03/28 12:57:01;;;;;;;21.65;5.05;;;23.50;35.70;;;;;;5134616;27;20111;-38
2021/03/28 12:59:40;;;;;;;27.17;5.73;;;23.50;35.80;;;;;;5133577;27;20502;-38
2021/03/28 13:02:13;;;;;;;21.58;4.93;;;23.50;35.80;;;;;;5117576;27;20410;-38
2021/03/28 13:04:51;;;;;;;32.15;5.43;;;23.50;35.90;;;;;;5117290;27;20115;-38
2021/03/28 13:07:55;;;;;;;30.52;5.78;;;23.50;35.90;;;;;;5126711;27;20482;-38
2021/03/28 13:10:30;;;;;;;29.65;5.03;;;23.50;36.20;;;;;;5048368;28;20041;-38
2021/03/28 13:12:58;;;;;;;18.98;4.57;;;23.50;37.10;;;;;;5034320;28;20531;-38
2021/03/28 13:15:35;;;;;;;17.08;4.53;;;23.50;36.90;;;;;;5033150;28;20504;-38
2021/03/28 13:18:14;;;;;;;21.27;4.07;;;23.50;37.10;;;;;;5048509;28;20041;-39
2021/03/28 13:20:55;;;;;;;17.75;3.78;;;23.50;37.30;;;;;;5041856;28;20496;-38
2021/03/28 13:23:38;;;;;;;24.08;4.40;;;23.50;37.40;;;;;;5050014;28;20049;-38
2021/03/28 13:26:07;;;;;;;18.38;3.70;;;23.50;37.50;;;;;;5032021;28;20128;-38
2021/03/28 13:28:35;;;;;;;24.88;4.93;;;23.50;37.50;;;;;;5049496;28;20045;-39
2021/03/28 13:31:23;;;;;;;21.20;3.65;;;23.50;37.50;;;;;;5047783;28;20448;-38
2021/03/28 13:33:54;;;;;;;22.73;4.03;;;23.50;37.50;;;;;;5032862;28;20081;-40
2021/03/28 13:36:26;;;;;;;22.63;3.80;;;23.40;37.50;;;;;;5048264;28;20045;-38
2021/03/28 13:39:07;;;;;;;14.73;3.63;;;23.40;37.50;;;;;;5048852;28;20045;-38
2021/03/28 13:41:55;;;;;;;17.30;4.10;;;23.50;37.50;;;;;;5035668;28;20125;-38
2021/03/28 13:44:31;;;;;;;13.13;3.63;;;23.40;37.50;;;;;;5039536;28;20049;-38
2021/03/28 13:47:04;;;;;;;19.27;4.00;;;23.50;37.50;;;;;;5113698;27;20127;-39
2021/03/28 13:49:48;;;;;;;13.15;3.88;;;23.40;37.50;;;;;;5130423;27;20043;-38
2021/03/28 13:52:22;;;;;;;13.50;3.15;;;23.40;37.40;;;;;;5120069;27;20488;-38
2021/03/28 13:55:06;;;;;;;19.13;3.60;;;23.40;37.40;;;;;;5129650;27;20039;-38
2021/03/28 13:57:36;;;;;;;13.75;3.53;;;23.40;37.40;;;;;;5131416;27;20039;-38
2021/03/28 14:00:19;;;;;;;13.27;4.03;;;23.40;37.30;;;;;;5130039;27;20050;-39
2021/03/28 14:02:49;;;;;;;11.10;3.53;;;23.40;37.40;;;;;;5131295;27;20043;-39
2021/03/28 14:05:18;;;;;;;17.65;3.70;;;23.40;37.30;;;;;;5132548;27;20051;-38
2021/03/28 14:07:53;;;;;;;14.75;3.63;;;23.40;37.30;;;;;;5118238;27;20058;-38
2021/03/28 14:10:46;;;;;;;15.85;3.90;;;23.40;37.30;;;;;;5122312;27;20447;-38
2021/03/28 14:13:18;;;;;;;12.52;3.53;;;23.40;37.30;;;;;;5113533;27;20134;-38
2021/03/28 14:15:55;;;;;;;15.73;4.20;;;23.40;37.30;;;;;;5117256;27;20116;-38
2021/03/28 14:18:32;;;;;;;15.65;3.33;;;23.40;37.30;;;;;;5116601;27;20093;-39
2021/03/28 14:21:18;;;;;;;11.18;3.58;;;23.40;37.30;;;;;;5120574;27;20088;-38
2021/03/28 14:23:56;;;;;;;11.85;3.15;;;23.40;37.30;;;;;;5127653;27;20067;-37
2021/03/28 14:26:52;;;;;;;16.98;4.05;;;23.40;37.40;;;;;;5116524;27;20043;-39
2021/03/28 14:29:39;;;;;;;11.40;3.42;;;23.40;37.50;;;;;;5118266;27;20125;-38
2021/03/28 14:32:13;;;;;;;12.68;3.15;;;23.40;37.70;;;;;;5121198;27;20047;-38
2021/03/28 14:35:17;;;;;;;11.93;3.08;;;23.40;37.70;;;;;;5126605;27;20062;-38
2021/03/28 14:38:11;;;;;;;16.80;3.40;;;23.40;37.90;;;;;;5116086;27;20050;-38
2021/03/28 14:40:56;;;;;;;;;;;23.40;37.90;;;;;;5129011;27;20120;-38
2021/03/28 14:44:03;;;;;;;12.35;3.00;;;23.40;38.10;;;;;;5121852;27;19927;-39
2021/03/28 14:46:35;;;;;;;8.40;2.90;;;23.40;38.10;;;;;;5115128;27;20090;-38
2021/03/28 14:49:18;;;;;;;13.60;3.50;;;23.40;38.20;;;;;;5129735;27;20043;-38
2021/03/28 14:51:47;;;;;;;13.20;3.47;;;23.40;38.30;;;;;;5132108;27;20079;-38
2021/03/28 14:54:33;;;;;;;9.48;2.75;;;23.40;38.30;;;;;;5132497;27;20047;-38